createdAt,value
2023-04-25T00:00:27.157Z,16.10
2023-04-25T00:03:27.624Z,15.40
2023-04-25T00:06:20.044Z,14.10
2023-04-25T00:09:12.873Z,18.50
2023-04-25T00:12:09.246Z,19.20
2023-04-25T00:15:02.105Z,16.00
2023-04-25T00:17:55.109Z,14.80
2023-04-25T00:20:51.579Z,16.70
2023-04-25T00:26:53.669Z,12.60
2023-04-25T00:29:48.909Z,14.40
2023-04-25T00:32:41.642Z,15.90
2023-04-25T00:35:36.133Z,19.60
2023-04-25T00:38:28.735Z,19.00
2023-04-25T00:41:22.251Z,17.90
2023-04-25T00:44:03.968Z,19.30
2023-04-25T00:47:01.588Z,18.60
2023-04-25T00:49:54.971Z,16.80
2023-04-25T00:52:48.454Z,17.80
2023-04-25T00:55:42.003Z,17.70
2023-04-25T00:59:21.879Z,16.90
2023-04-25T01:02:15.087Z,16.40
2023-04-25T01:05:09.951Z,15.80
2023-04-25T01:08:06.256Z,16.90
2023-04-25T01:11:01.436Z,14.20
2023-04-25T01:13:44.698Z,16.00
2023-04-25T01:16:38.113Z,13.60
2023-04-25T01:19:31.808Z,15.40
2023-04-25T01:22:24.908Z,12.50
2023-04-25T01:25:19.208Z,12.80
2023-04-25T01:28:12.968Z,15.60
2023-04-25T01:31:06.996Z,14.30
2023-04-25T01:34:00.296Z,13.90
2023-04-25T01:36:47.728Z,13.30
2023-04-25T01:39:42.950Z,10.80
2023-04-25T01:42:36.879Z,12.60
2023-04-25T01:45:30.441Z,11.50
2023-04-25T01:48:17.474Z,10.60
2023-04-25T01:51:10.279Z,11.90
2023-04-25T01:53:58.381Z,14.00
2023-04-25T01:56:55.697Z,12.60
2023-04-25T01:59:49.387Z,10.90
2023-04-25T02:02:49.200Z,14.30
2023-04-25T02:05:45.772Z,14.30
2023-04-25T02:08:38.921Z,14.90
2023-04-25T02:11:32.709Z,14.10
2023-04-25T02:14:44.201Z,14.80
2023-04-25T02:17:55.220Z,18.00
2023-04-25T02:20:50.474Z,14.90
2023-04-25T02:23:34.591Z,11.40
2023-04-25T02:26:27.916Z,15.10
2023-04-25T02:29:22.979Z,13.00
2023-04-25T02:32:15.523Z,13.30
2023-04-25T02:35:09.423Z,13.80
2023-04-25T02:38:01.955Z,15.20
2023-04-25T02:40:54.788Z,13.50
2023-04-25T02:43:51.356Z,16.40
2023-04-25T02:46:44.383Z,13.00
2023-04-25T02:49:36.950Z,14.30
2023-04-25T02:52:30.238Z,13.30
2023-04-25T02:55:25.584Z,11.50
2023-04-25T02:59:14.359Z,12.30
2023-04-25T03:05:24.869Z,8.30
2023-04-25T03:08:17.569Z,10.40
2023-04-25T03:11:13.201Z,10.30
2023-04-25T03:14:06.092Z,14.90
2023-04-25T03:16:58.758Z,13.50
2023-04-25T03:19:53.114Z,13.50
2023-04-25T03:22:46.134Z,11.90
2023-04-25T03:25:39.112Z,14.00
2023-04-25T03:28:32.171Z,10.50
2023-04-25T03:31:35.104Z,10.20
2023-04-25T03:34:18.111Z,9.50
2023-04-25T03:37:10.870Z,10.40
2023-04-25T03:40:03.769Z,9.30
2023-04-25T03:42:57.409Z,10.90
2023-04-25T03:45:52.487Z,6.50
2023-04-25T03:48:55.690Z,9.30
2023-04-25T03:51:48.341Z,9.00
2023-04-25T03:54:43.284Z,7.90
2023-04-25T03:57:39.154Z,9.60
2023-04-25T04:00:41.814Z,7.90
2023-04-25T04:03:35.517Z,9.20
2023-04-25T04:06:22.798Z,8.10
2023-04-25T04:09:23.539Z,6.80
2023-04-25T04:12:17.440Z,8.50
2023-04-25T04:15:13.020Z,6.10
2023-04-25T04:18:10.062Z,8.60
2023-04-25T04:21:03.709Z,6.20
2023-04-25T04:23:55.425Z,9.50
2023-04-25T04:26:52.548Z,7.00
2023-04-25T04:30:09.708Z,9.40
2023-04-25T04:33:03.676Z,8.80
2023-04-25T04:35:59.013Z,5.40
2023-04-25T04:38:55.121Z,8.00
2023-04-25T04:41:49.717Z,8.60
2023-04-25T04:44:41.530Z,9.60
2023-04-25T04:47:38.906Z,8.80
2023-04-25T04:50:37.995Z,8.20
2023-04-25T04:53:31.505Z,11.20
2023-04-25T04:56:26.054Z,7.40
2023-04-25T04:59:23.907Z,8.30
2023-04-25T05:02:30.671Z,5.30
2023-04-25T05:05:23.689Z,8.80
2023-04-25T05:08:19.895Z,5.70
2023-04-25T05:11:14.503Z,6.50
2023-04-25T05:14:08.078Z,7.50
2023-04-25T05:17:14.155Z,7.50
2023-04-25T05:20:10.514Z,7.20
2023-04-25T05:23:11.113Z,6.90
2023-04-25T05:26:02.990Z,9.40
2023-04-25T05:29:07.416Z,12.00
2023-04-25T05:32:08.871Z,5.40
2023-04-25T05:35:03.974Z,8.40
2023-04-25T05:37:59.042Z,10.00
2023-04-25T05:40:53.166Z,10.10
2023-04-25T05:44:00.530Z,7.70
2023-04-25T05:46:57.024Z,8.90
2023-04-25T05:49:58.890Z,8.70
2023-04-25T05:53:09.967Z,9.20
2023-04-25T05:56:03.028Z,10.80
2023-04-25T05:58:56.697Z,8.00
2023-04-25T06:01:44.873Z,7.40
2023-04-25T06:04:38.441Z,6.90
2023-04-25T06:07:33.195Z,6.60
2023-04-25T06:10:27.112Z,9.10
2023-04-25T06:13:25.190Z,15.40
2023-04-25T06:16:17.810Z,17.00
2023-04-25T06:19:10.617Z,16.30
2023-04-25T06:22:06.044Z,13.10
2023-04-25T06:25:01.814Z,10.90
2023-04-25T06:28:01.922Z,9.30
2023-04-25T06:35:24.717Z,6.60
2023-04-25T06:38:21.471Z,9.00
2023-04-25T06:41:17.885Z,6.50
2023-04-25T06:44:18.636Z,8.30
2023-04-25T06:47:28.068Z,9.90
2023-04-25T06:50:16.158Z,5.00
2023-04-25T06:53:09.990Z,9.60
2023-04-25T06:56:08.913Z,7.10
2023-04-25T06:59:06.713Z,7.90
2023-04-25T07:02:06.675Z,9.40
2023-04-25T07:05:01.247Z,8.70
2023-04-25T07:08:16.456Z,8.20
2023-04-25T07:11:13.406Z,5.70
2023-04-25T07:14:06.142Z,8.80
2023-04-25T07:21:54.130Z,8.00
2023-04-25T07:24:50.161Z,6.40
2023-04-25T07:27:42.639Z,7.20
2023-04-25T07:30:36.273Z,6.30
2023-04-25T07:33:34.122Z,10.60
2023-04-25T07:36:38.565Z,8.10
2023-04-25T07:39:31.122Z,5.20
2023-04-25T07:42:27.441Z,6.00
2023-04-25T07:45:20.221Z,5.10
2023-04-25T07:48:13.088Z,4.00
2023-04-25T07:50:58.143Z,6.00
2023-04-25T07:53:54.350Z,4.80
2023-04-25T07:57:01.867Z,6.10
2023-04-25T08:00:17.791Z,4.00
2023-04-25T08:03:13.747Z,3.20
2023-04-25T08:06:13.690Z,5.60
2023-04-25T08:09:09.969Z,5.20
2023-04-25T08:12:04.119Z,5.50
2023-04-25T08:14:59.265Z,3.10
2023-04-25T08:17:53.093Z,6.60
2023-04-25T08:20:57.259Z,4.50
2023-04-25T08:23:53.542Z,3.80
2023-04-25T08:27:00.136Z,4.50
2023-04-25T08:29:54.671Z,5.50
2023-04-25T08:32:47.917Z,6.30
2023-04-25T08:35:55.495Z,5.30
2023-04-25T08:38:43.246Z,4.60
2023-04-25T08:42:09.590Z,3.30
2023-04-25T08:45:07.140Z,4.40
2023-04-25T08:48:09.807Z,5.40
2023-04-25T08:51:03.927Z,3.60
2023-04-25T08:54:06.374Z,3.80
2023-04-25T08:57:15.106Z,5.30
2023-04-25T09:00:12.173Z,3.60
2023-04-25T09:03:08.165Z,6.60
2023-04-25T09:06:02.696Z,3.70
2023-04-25T09:08:57.369Z,4.10
2023-04-25T09:11:46.041Z,3.90
2023-04-25T09:14:39.011Z,1.90
2023-04-25T09:17:33.094Z,4.60
2023-04-25T09:20:26.048Z,4.30
2023-04-25T09:23:22.556Z,5.00
2023-04-25T09:26:20.629Z,6.30
2023-04-25T09:29:14.013Z,5.00
2023-04-25T09:32:22.075Z,4.50
2023-04-25T09:35:32.420Z,4.00
2023-04-25T09:38:25.516Z,5.70
2023-04-25T09:41:27.601Z,3.20
2023-04-25T09:44:28.704Z,4.50
2023-04-25T09:47:28.056Z,3.60
2023-04-25T09:50:21.759Z,8.10
2023-04-25T09:53:16.186Z,8.50
2023-04-25T09:56:13.160Z,6.50
2023-04-25T09:59:08.277Z,5.20
2023-04-25T10:02:02.720Z,9.00
2023-04-25T10:04:57.589Z,6.20
2023-04-25T10:08:00.431Z,5.80
2023-04-25T10:10:56.987Z,5.50
2023-04-25T10:13:58.889Z,4.90
2023-04-25T10:16:54.915Z,4.80
2023-04-25T10:19:48.624Z,5.80
2023-04-25T10:22:43.878Z,4.00
2023-04-25T10:26:15.706Z,3.70
2023-04-25T10:32:19.173Z,7.40
2023-04-25T10:35:17.858Z,7.30
2023-04-25T10:38:16.479Z,4.50
2023-04-25T10:41:12.496Z,5.40
2023-04-25T10:44:08.484Z,5.90
2023-04-25T10:47:03.370Z,7.60
2023-04-25T10:49:57.332Z,12.10
2023-04-25T10:52:51.948Z,9.50
2023-04-25T10:55:55.905Z,6.00
2023-04-25T10:58:51.314Z,5.50
2023-04-25T11:01:48.932Z,4.20
2023-04-25T11:04:45.183Z,5.20
2023-04-25T11:07:52.874Z,8.60
2023-04-25T11:10:54.313Z,6.10
2023-04-25T11:14:01.909Z,6.50
2023-04-25T11:17:04.260Z,5.40
2023-04-25T11:20:43.211Z,4.10
2023-04-25T11:24:33.428Z,4.00
2023-04-25T11:27:27.950Z,3.20
2023-04-25T11:31:36.360Z,3.30
2023-04-25T11:34:31.988Z,4.00
2023-04-25T11:37:26.594Z,3.80
2023-04-25T11:40:19.711Z,1.90
2023-04-25T11:43:13.329Z,2.70
2023-04-25T11:46:10.780Z,3.20
2023-04-25T11:49:04.211Z,2.60
2023-04-25T11:51:59.026Z,3.20
2023-04-25T11:54:52.172Z,4.50
2023-04-25T11:57:48.414Z,2.80
2023-04-25T12:00:50.132Z,4.60
2023-04-25T12:04:44.858Z,4.00
2023-04-25T12:07:07.936Z,4.40
2023-04-25T12:10:01.077Z,4.10
2023-04-25T12:12:57.136Z,4.20
2023-04-25T12:15:51.263Z,4.40
2023-04-25T12:19:06.293Z,6.50
2023-04-25T12:24:48.813Z,5.10
2023-04-25T12:27:34.808Z,5.40
2023-04-25T12:30:28.193Z,3.90
2023-04-25T12:33:21.314Z,5.30
2023-04-25T12:36:15.699Z,3.80
2023-04-25T12:39:09.038Z,3.40
2023-04-25T12:42:06.847Z,5.10
2023-04-25T12:45:01.333Z,5.30
2023-04-25T12:47:55.148Z,5.70
2023-04-25T12:50:54.522Z,6.40
2023-04-25T12:53:50.395Z,3.60
2023-04-25T12:57:07.044Z,4.70
2023-04-25T13:00:02.020Z,3.00
2023-04-25T13:02:57.521Z,3.00
2023-04-25T13:05:51.944Z,6.10
2023-04-25T13:08:44.709Z,3.20
2023-04-25T13:11:38.673Z,3.80
2023-04-25T13:14:32.621Z,7.90
2023-04-25T13:17:26.897Z,5.80
2023-04-25T13:20:23.588Z,4.60
2023-04-25T13:23:17.470Z,6.80
2023-04-25T13:26:09.793Z,6.00
2023-04-25T13:29:04.930Z,4.90
2023-04-25T13:31:57.524Z,6.10
2023-04-25T13:34:56.389Z,3.60
2023-04-25T13:37:49.021Z,7.40
2023-04-25T13:40:41.651Z,4.60
2023-04-25T13:43:36.185Z,4.50
2023-04-25T13:46:48.521Z,6.00
2023-04-25T13:49:40.208Z,8.00
2023-04-25T13:52:33.101Z,8.20
2023-04-25T13:55:26.717Z,6.50
2023-04-25T13:58:24.925Z,6.90
2023-04-25T14:01:18.224Z,4.80
2023-04-25T14:04:12.716Z,6.60
2023-04-25T14:07:06.252Z,8.60
2023-04-25T14:10:01.036Z,4.20
2023-04-25T14:12:53.641Z,5.80
2023-04-25T14:15:47.339Z,7.10
2023-04-25T14:18:39.868Z,6.90
2023-04-25T14:22:35.409Z,7.10
2023-04-25T14:25:35.097Z,5.50
2023-04-25T14:28:03.092Z,5.90
2023-04-25T14:30:56.560Z,6.00
2023-04-25T14:33:52.432Z,6.10
2023-04-25T14:36:45.838Z,4.50
2023-04-25T14:39:39.424Z,6.80
2023-04-25T14:42:33.422Z,3.70
2023-04-25T14:45:27.895Z,4.10
2023-04-25T14:48:24.881Z,4.30
2023-04-25T14:51:39.004Z,7.00
2023-04-25T14:54:31.627Z,6.70
2023-04-25T14:57:29.384Z,9.60
2023-04-25T15:00:26.528Z,7.70
2023-04-25T15:03:20.888Z,7.10
2023-04-25T15:06:14.013Z,7.50
2023-04-25T15:09:07.581Z,7.70
2023-04-25T15:12:01.748Z,7.20
2023-04-25T15:14:55.271Z,8.20
2023-04-25T15:17:49.640Z,5.50
2023-04-25T15:20:42.970Z,6.40
2023-04-25T15:23:36.224Z,5.40
2023-04-25T15:26:29.856Z,8.90
2023-04-25T15:29:16.771Z,8.10
2023-04-25T15:32:09.781Z,7.00
2023-04-25T15:35:04.802Z,7.60
2023-04-25T15:38:00.308Z,8.70
2023-04-25T15:40:57.805Z,7.00
2023-04-25T15:43:51.780Z,5.70
2023-04-25T15:46:48.171Z,7.30
2023-04-25T15:49:41.583Z,7.00
2023-04-25T15:52:34.184Z,10.00
2023-04-25T15:55:27.957Z,6.60
2023-04-25T15:58:20.652Z,6.30
2023-04-25T16:01:13.856Z,7.40
2023-04-25T16:04:07.337Z,6.80
2023-04-25T16:06:59.917Z,5.90
2023-04-25T16:09:52.687Z,7.90
2023-04-25T16:12:45.657Z,11.50
2023-04-25T16:15:38.050Z,6.70
2023-04-25T16:18:32.324Z,8.80
2023-04-25T16:21:24.843Z,10.00
2023-04-25T16:24:18.241Z,7.20
2023-04-25T16:27:10.924Z,7.20
2023-04-25T16:30:03.878Z,7.70
2023-04-25T16:32:58.118Z,10.30
2023-04-25T16:35:52.750Z,6.70
2023-04-25T16:38:49.264Z,7.70
2023-04-25T16:41:42.775Z,4.40
2023-04-25T16:44:35.578Z,5.80
2023-04-25T16:47:28.695Z,4.80
2023-04-25T16:50:21.978Z,4.90
2023-04-25T16:53:14.960Z,5.00
2023-04-25T16:56:08.495Z,7.10
2023-04-25T16:59:02.420Z,6.80
2023-04-25T17:01:58.225Z,8.00
2023-04-25T17:04:51.403Z,7.10
2023-04-25T17:07:44.061Z,5.00
2023-04-25T17:10:37.039Z,5.10
2023-04-25T17:13:30.994Z,4.80
2023-04-25T17:16:25.637Z,7.70
2023-04-25T17:19:22.133Z,8.90
2023-04-25T17:22:15.187Z,14.30
2023-04-25T17:25:10.032Z,4.80
2023-04-25T17:28:03.162Z,7.00
2023-04-25T17:30:58.680Z,6.60
2023-04-25T17:33:51.828Z,8.90
2023-04-25T17:36:44.287Z,7.70
2023-04-25T17:39:37.328Z,7.80
2023-04-25T17:42:30.894Z,6.90
2023-04-25T17:45:24.073Z,9.40
2023-04-25T17:48:16.886Z,19.10
2023-04-25T17:51:09.712Z,11.90
2023-04-25T17:54:02.622Z,13.10
2023-04-25T17:56:57.122Z,9.70
2023-04-25T17:59:49.887Z,10.40
2023-04-25T18:02:42.504Z,9.90
2023-04-25T18:05:34.997Z,8.10
2023-04-25T18:08:28.033Z,7.70
2023-04-25T18:11:20.806Z,6.80
2023-04-25T18:14:15.538Z,6.90
2023-04-25T18:17:09.148Z,9.90
2023-04-25T18:20:02.074Z,10.00
2023-04-25T18:22:54.558Z,8.60
2023-04-25T18:25:54.818Z,9.90
2023-04-25T18:28:48.913Z,10.10
2023-04-25T18:31:43.640Z,10.20
2023-04-25T18:34:36.454Z,7.60
2023-04-25T18:37:30.779Z,10.30
2023-04-25T18:40:23.315Z,9.60
2023-04-25T18:43:16.327Z,18.90
2023-04-25T18:46:09.221Z,10.90
2023-04-25T18:49:04.124Z,21.60
2023-04-25T18:51:57.548Z,12.30
2023-04-25T18:54:53.813Z,15.30
2023-04-25T18:57:50.039Z,12.50
2023-04-25T19:00:42.830Z,12.40
2023-04-25T19:03:28.706Z,11.30
2023-04-25T19:06:24.359Z,11.70
2023-04-25T19:09:18.614Z,7.10
2023-04-25T19:12:12.460Z,12.80
2023-04-25T19:14:59.336Z,12.90
2023-04-25T19:17:53.632Z,13.00
2023-04-25T19:20:49.620Z,14.70
2023-04-25T19:23:35.882Z,10.90
2023-04-25T19:26:28.637Z,11.80
2023-04-25T19:29:22.065Z,16.40
2023-04-25T19:32:16.139Z,10.20
2023-04-25T19:35:11.821Z,12.90
2023-04-25T19:38:04.547Z,12.70
2023-04-25T19:40:57.952Z,10.90
2023-04-25T19:43:51.739Z,12.60
2023-04-25T19:46:49.996Z,14.20
2023-04-25T19:49:43.656Z,10.60
2023-04-25T19:52:38.243Z,11.50
2023-04-25T19:55:30.956Z,12.90
2023-04-25T19:58:23.998Z,12.20
2023-04-25T20:01:22.832Z,9.50
2023-04-25T20:04:18.854Z,9.80
2023-04-25T20:07:11.300Z,9.80
2023-04-25T20:10:06.931Z,11.20
2023-04-25T20:13:00.033Z,14.60
2023-04-25T20:15:53.942Z,12.40
2023-04-25T20:18:48.462Z,16.10
2023-04-25T20:21:41.338Z,11.40
2023-04-25T20:24:34.114Z,13.60
2023-04-25T20:27:28.034Z,15.80
2023-04-25T20:30:23.678Z,14.90
2023-04-25T20:33:16.186Z,14.20
2023-04-25T20:36:10.126Z,11.70
2023-04-25T20:39:05.865Z,13.30
2023-04-25T20:42:03.251Z,14.70
2023-04-25T20:44:57.434Z,13.90
2023-04-25T20:47:50.240Z,13.40
2023-04-25T20:50:49.614Z,12.10
2023-04-25T20:53:41.778Z,12.30
2023-04-25T20:56:37.228Z,8.10
2023-04-25T20:59:29.860Z,10.80
2023-04-25T21:02:22.371Z,13.80
2023-04-25T21:05:14.937Z,12.80
2023-04-25T21:08:09.014Z,13.00
2023-04-25T21:11:10.798Z,12.80
2023-04-25T21:14:07.316Z,13.00
2023-04-25T21:17:02.135Z,11.60
2023-04-25T21:19:54.790Z,14.00
2023-04-25T21:22:53.018Z,13.40
2023-04-25T21:25:51.907Z,17.20
2023-04-25T21:28:44.723Z,13.40
2023-04-25T21:31:38.072Z,15.20
2023-04-25T21:34:31.112Z,15.10
2023-04-25T21:37:24.556Z,12.50
2023-04-25T21:40:18.943Z,14.20
2023-04-25T21:43:12.275Z,18.00
2023-04-25T21:46:22.116Z,19.90
2023-04-25T21:49:19.623Z,20.20
2023-04-25T21:52:12.572Z,19.70
2023-04-25T21:55:05.983Z,17.90
2023-04-25T21:57:58.808Z,19.30
2023-04-25T22:00:52.991Z,11.90
2023-04-25T22:03:39.965Z,17.00
2023-04-25T22:06:33.286Z,13.10
2023-04-25T22:09:26.005Z,13.60
2023-04-25T22:12:19.103Z,6.20
2023-04-25T22:15:14.069Z,6.90
2023-04-25T22:18:07.065Z,8.10
2023-04-25T22:21:01.456Z,8.70
2023-04-25T22:23:54.032Z,7.00
2023-04-25T22:26:49.480Z,11.10
2023-04-25T22:29:42.447Z,10.60
2023-04-25T22:32:34.950Z,6.90
2023-04-25T22:35:20.758Z,9.30
2023-04-25T22:38:13.257Z,6.80
2023-04-25T22:41:07.202Z,5.40
2023-04-25T22:44:02.923Z,6.70
2023-04-25T22:47:02.888Z,7.90
2023-04-25T22:49:58.139Z,6.30
2023-04-25T22:52:50.919Z,5.70
2023-04-25T22:55:44.599Z,6.30
2023-04-25T22:58:38.577Z,5.60
2023-04-25T23:01:31.856Z,5.80
2023-04-25T23:04:14.955Z,5.60
2023-04-25T23:07:07.775Z,5.60
2023-04-25T23:10:01.201Z,5.80
2023-04-25T23:12:57.110Z,5.50
2023-04-25T23:15:51.306Z,7.80
2023-04-25T23:18:39.419Z,4.70
2023-04-25T23:21:32.294Z,5.90
2023-04-25T23:24:26.133Z,6.30
2023-04-25T23:27:18.617Z,7.00
2023-04-25T23:30:13.719Z,8.30
2023-04-25T23:33:06.090Z,6.70
2023-04-25T23:35:51.921Z,6.60
2023-04-25T23:38:45.179Z,4.50
2023-04-25T23:41:38.672Z,11.50
2023-04-25T23:44:31.984Z,9.50
2023-04-25T23:47:25.596Z,5.00
2023-04-25T23:50:18.858Z,5.00
2023-04-25T23:53:14.293Z,11.50
2023-04-25T23:56:11.100Z,4.80
2023-04-25T23:58:57.906Z,8.30
